createdAt,value
2019-03-04T00:02:43.652Z,63.99
2019-03-04T00:06:49.459Z,63.83
2019-03-04T00:10:55.324Z,64.32
2019-03-04T00:15:00.769Z,63.03
2019-03-04T00:19:06.307Z,63.58
2019-03-04T00:23:11.809Z,63.63
2019-03-04T00:27:17.463Z,63.10
2019-03-04T00:31:22.916Z,63.27
2019-03-04T00:35:28.663Z,63.11
2019-03-04T00:39:34.042Z,63.14
2019-03-04T00:43:39.262Z,62.92
2019-03-04T00:47:44.711Z,64.09
2019-03-04T00:51:50.333Z,63.78
2019-03-04T00:55:55.773Z,63.56
2019-03-04T01:00:01.121Z,62.93
2019-03-04T01:04:06.591Z,62.75
2019-03-04T01:08:12.115Z,63.15
2019-03-04T01:12:18.122Z,62.47
2019-03-04T01:16:23.526Z,61.70
2019-03-04T01:20:28.808Z,61.33
2019-03-04T01:24:34.201Z,61.00
2019-03-04T01:28:39.976Z,61.73
2019-03-04T01:32:45.398Z,60.43
2019-03-04T01:36:50.861Z,61.88
2019-03-04T01:40:56.307Z,61.36
2019-03-04T01:45:01.707Z,61.11
2019-03-04T01:49:07.157Z,61.45
2019-03-04T01:53:12.690Z,62.10
2019-03-04T01:57:18.068Z,61.58
2019-03-04T02:01:23.872Z,62.19
2019-03-04T02:05:32.079Z,62.47
2019-03-04T02:09:37.892Z,63.26
2019-03-04T02:13:43.256Z,63.63
2019-03-04T02:17:49.141Z,64.01
2019-03-04T02:21:54.910Z,63.92
2019-03-04T02:26:24.135Z,63.73
2019-03-04T02:30:30.298Z,63.01
2019-03-04T02:34:35.690Z,62.86
2019-03-04T02:38:41.040Z,63.60
2019-03-04T02:42:46.580Z,62.86
2019-03-04T02:46:51.944Z,62.14
2019-03-04T02:50:57.295Z,62.80
2019-03-04T02:55:02.756Z,61.44
2019-03-04T02:59:08.244Z,59.69
2019-03-04T03:03:13.688Z,60.51
2019-03-04T03:07:19.143Z,59.21
2019-03-04T03:11:24.423Z,58.41
2019-03-04T03:15:29.864Z,57.73
2019-03-04T03:19:35.209Z,56.29
2019-03-04T03:23:41.052Z,55.91
2019-03-04T03:27:46.379Z,55.82
2019-03-04T03:31:59.483Z,53.89
2019-03-04T03:36:04.858Z,53.63
2019-03-04T03:40:12.352Z,53.76
2019-03-04T03:44:17.910Z,52.94
2019-03-04T03:48:23.770Z,54.08
2019-03-04T03:52:29.135Z,54.39
2019-03-04T03:56:34.622Z,55.27
2019-03-04T04:00:40.068Z,55.49
2019-03-04T04:04:45.440Z,54.78
2019-03-04T04:08:50.868Z,54.94
2019-03-04T04:12:56.322Z,55.47
2019-03-04T04:17:02.215Z,55.18
2019-03-04T04:21:07.627Z,55.06
2019-03-04T04:25:13.071Z,53.10
2019-03-04T04:29:18.789Z,53.46
2019-03-04T04:33:24.359Z,52.13
2019-03-04T04:37:30.114Z,51.13
2019-03-04T04:41:35.846Z,51.95
2019-03-04T04:45:41.382Z,51.47
2019-03-04T04:49:47.174Z,52.52
2019-03-04T04:53:56.609Z,51.38
2019-03-04T04:58:02.505Z,51.83
2019-03-04T05:02:08.014Z,52.21
2019-03-04T05:06:13.461Z,51.85
2019-03-04T05:10:19.887Z,51.52
2019-03-04T05:14:25.244Z,52.37
2019-03-04T05:18:30.730Z,52.08
2019-03-04T05:22:35.990Z,52.71
2019-03-04T05:26:41.378Z,52.93
2019-03-04T05:30:46.725Z,52.93
2019-03-04T05:34:52.173Z,52.54
2019-03-04T05:38:57.648Z,52.97
2019-03-04T05:43:03.226Z,53.10
2019-03-04T05:47:08.970Z,54.14
2019-03-04T05:51:14.331Z,55.28
2019-03-04T05:55:19.893Z,58.14
2019-03-04T05:59:25.340Z,74.36
2019-03-04T06:03:30.698Z,75.28
2019-03-04T06:07:40.033Z,76.47
2019-03-04T06:11:45.819Z,77.26
2019-03-04T06:15:51.296Z,76.99
2019-03-04T06:19:56.797Z,76.48
2019-03-04T06:24:02.747Z,74.70
2019-03-04T06:28:08.299Z,76.25
2019-03-04T06:32:14.067Z,72.75
2019-03-04T06:36:19.812Z,72.19
2019-03-04T06:40:25.300Z,70.04
2019-03-04T06:44:30.837Z,69.99
2019-03-04T06:48:36.244Z,70.09
2019-03-04T06:52:42.201Z,68.52
2019-03-04T06:56:57.601Z,68.76
2019-03-04T07:01:21.441Z,70.12
2019-03-04T07:05:53.992Z,68.38
2019-03-04T07:09:59.493Z,69.49
2019-03-04T07:14:05.358Z,68.36
2019-03-04T07:18:10.775Z,67.94
2019-03-04T07:22:16.410Z,68.92
2019-03-04T07:26:21.940Z,68.87
2019-03-04T07:30:27.390Z,67.69
2019-03-04T07:34:33.946Z,66.74
2019-03-04T07:38:59.987Z,64.48
2019-03-04T07:43:05.801Z,65.03
2019-03-04T07:47:12.301Z,64.68
2019-03-04T07:51:18.664Z,63.93
2019-03-04T07:55:23.983Z,65.71
2019-03-04T07:59:29.536Z,64.79
2019-03-04T08:03:34.985Z,67.09
2019-03-04T08:07:49.903Z,67.45
2019-03-04T08:12:47.600Z,66.12
2019-03-04T08:16:53.063Z,62.12
2019-03-04T08:20:58.613Z,61.56
2019-03-04T08:25:04.175Z,58.71
2019-03-04T08:29:09.875Z,58.28
2019-03-04T08:33:15.378Z,57.29
2019-03-04T08:37:20.826Z,56.24
2019-03-04T08:41:26.842Z,55.81
2019-03-04T08:45:32.810Z,54.47
2019-03-04T08:49:38.333Z,53.90
2019-03-04T08:53:44.242Z,54.66
2019-03-04T08:57:49.843Z,54.84
2019-03-04T09:01:55.424Z,54.07
2019-03-04T09:06:00.787Z,54.29
2019-03-04T09:10:13.806Z,54.81
2019-03-04T09:14:19.622Z,55.43
2019-03-04T09:18:25.586Z,55.10
2019-03-04T09:22:31.087Z,55.94
2019-03-04T09:26:36.658Z,58.14
2019-03-04T09:30:42.514Z,60.67
2019-03-04T09:34:48.424Z,64.15
2019-03-04T09:38:54.274Z,64.10
2019-03-04T09:43:00.356Z,65.43
2019-03-04T09:47:06.145Z,65.16
2019-03-04T09:51:11.589Z,67.46
2019-03-04T09:55:17.502Z,67.84
2019-03-04T09:59:22.932Z,67.06
2019-03-04T10:04:18.633Z,64.96
2019-03-04T10:08:46.049Z,66.21
2019-03-04T10:14:03.875Z,66.21
2019-03-04T10:18:49.543Z,65.58
2019-03-04T10:23:32.808Z,66.47
2019-03-04T10:28:12.908Z,65.07
2019-03-04T10:33:23.391Z,63.60
2019-03-04T10:38:49.220Z,62.48
2019-03-04T10:43:42.407Z,63.79
2019-03-04T10:47:47.828Z,64.46
2019-03-04T10:51:53.354Z,64.10
2019-03-04T10:55:58.855Z,63.75
2019-03-04T11:00:06.939Z,77.71
2019-03-04T11:04:12.528Z,80.18
2019-03-04T11:08:18.499Z,81.03
2019-03-04T11:12:24.466Z,81.36
2019-03-04T11:16:29.962Z,79.75
2019-03-04T11:20:35.621Z,80.20
2019-03-04T11:24:41.598Z,80.62
2019-03-04T11:28:47.109Z,80.42
2019-03-04T11:32:52.567Z,80.39
2019-03-04T11:37:01.222Z,81.11
2019-03-04T11:41:07.775Z,79.29
2019-03-04T11:45:16.247Z,78.27
2019-03-04T11:49:31.704Z,75.50
2019-03-04T11:53:37.195Z,76.86
2019-03-04T11:57:42.632Z,76.77
2019-03-04T12:01:49.776Z,75.91
2019-03-04T12:05:55.492Z,75.62
2019-03-04T12:10:00.829Z,74.86
2019-03-04T12:14:06.409Z,74.43
2019-03-04T12:18:11.828Z,73.82
2019-03-04T12:22:17.645Z,74.30
2019-03-04T12:26:23.170Z,73.56
2019-03-04T12:30:30.983Z,72.14
2019-03-04T12:34:36.885Z,71.86
2019-03-04T12:38:42.422Z,72.89
2019-03-04T12:42:47.887Z,72.21
2019-03-04T12:46:53.422Z,71.14
2019-03-04T12:50:59.771Z,69.47
2019-03-04T12:55:06.581Z,70.00
2019-03-04T12:59:12.059Z,70.14
2019-03-04T13:03:24.268Z,68.82
2019-03-04T13:07:29.730Z,68.49
2019-03-04T13:11:38.452Z,69.74
2019-03-04T13:15:56.022Z,69.11
2019-03-04T13:20:02.181Z,69.42
2019-03-04T13:24:08.396Z,68.02
2019-03-04T13:28:14.109Z,67.82
2019-03-04T13:32:19.991Z,66.72
2019-03-04T13:36:25.918Z,65.33
2019-03-04T13:40:31.785Z,63.66
2019-03-04T13:44:57.725Z,63.07
2019-03-04T13:49:03.883Z,61.90
2019-03-04T13:53:10.068Z,61.25
2019-03-04T13:57:16.141Z,60.77
2019-03-04T14:01:21.882Z,58.30
2019-03-04T14:05:28.414Z,58.55
2019-03-04T14:09:34.210Z,56.89
2019-03-04T14:13:40.407Z,55.64
2019-03-04T14:17:46.348Z,55.25
2019-03-04T14:21:53.092Z,56.35
2019-03-04T14:25:59.178Z,53.87
2019-03-04T14:30:05.318Z,53.01
2019-03-04T14:34:11.161Z,49.97
2019-03-04T14:38:16.918Z,47.12
2019-03-04T14:42:22.810Z,46.49
2019-03-04T14:46:28.711Z,46.57
2019-03-04T14:50:34.502Z,47.31
2019-03-04T14:54:40.277Z,48.50
2019-03-04T14:58:46.025Z,48.32
2019-03-04T15:02:51.814Z,48.24
2019-03-04T15:06:57.501Z,48.33
2019-03-04T15:11:03.285Z,48.20
2019-03-04T15:15:09.574Z,48.23
2019-03-04T15:19:15.383Z,48.94
2019-03-04T15:23:21.588Z,50.54
2019-03-04T15:27:27.709Z,49.40
2019-03-04T15:31:34.122Z,49.37
2019-03-04T15:35:40.196Z,50.21
2019-03-04T15:39:46.031Z,49.66
2019-03-04T15:43:52.051Z,50.02
2019-03-04T15:47:58.572Z,49.37
2019-03-04T15:52:04.298Z,48.56
2019-03-04T15:56:10.173Z,48.29
2019-03-04T16:00:16.557Z,47.82
2019-03-04T16:04:26.752Z,47.46
2019-03-04T16:08:32.775Z,49.02
2019-03-04T16:12:38.609Z,50.80
2019-03-04T16:16:44.407Z,49.28
2019-03-04T16:20:50.263Z,47.94
2019-03-04T16:24:57.034Z,47.61
2019-03-04T16:29:02.885Z,48.20
2019-03-04T16:33:08.841Z,46.65
2019-03-04T16:37:14.688Z,47.76
2019-03-04T16:41:20.680Z,47.60
2019-03-04T16:45:26.735Z,47.77
2019-03-04T16:49:33.233Z,49.01
2019-03-04T16:53:39.066Z,49.60
2019-03-04T16:57:45.008Z,50.10
2019-03-04T17:01:50.915Z,50.17
2019-03-04T17:05:56.669Z,50.45
2019-03-04T17:10:02.454Z,50.88
2019-03-04T17:14:08.324Z,51.37
2019-03-04T17:18:14.232Z,51.36
2019-03-04T17:22:20.571Z,52.08
2019-03-04T17:26:26.372Z,52.24
2019-03-04T17:30:32.211Z,52.95
2019-03-04T17:34:39.153Z,53.13
2019-03-04T17:38:45.796Z,52.71
2019-03-04T17:42:52.471Z,53.14
2019-03-04T17:46:58.451Z,52.84
2019-03-04T17:51:06.205Z,53.28
2019-03-04T17:55:13.369Z,53.64
2019-03-04T17:59:19.308Z,53.15
2019-03-04T18:03:25.413Z,52.67
2019-03-04T18:07:31.109Z,52.73
2019-03-04T18:11:37.085Z,54.21
2019-03-04T18:15:42.987Z,54.36
2019-03-04T18:19:48.714Z,55.01
2019-03-04T18:23:54.645Z,54.13
2019-03-04T18:28:06.874Z,54.20
2019-03-04T18:33:27.965Z,55.00
2019-03-04T18:38:22.326Z,54.73
2019-03-04T18:43:11.638Z,55.56
2019-03-04T18:48:10.618Z,56.75
2019-03-04T18:52:16.366Z,56.71
2019-03-04T18:56:22.931Z,57.75
2019-03-04T19:00:28.891Z,57.10
2019-03-04T19:04:34.648Z,57.94
2019-03-04T19:08:40.384Z,57.16
2019-03-04T19:12:46.167Z,58.04
2019-03-04T19:16:51.942Z,57.89
2019-03-04T19:20:59.040Z,57.70
2019-03-04T19:25:04.978Z,58.81
2019-03-04T19:29:10.903Z,58.63
2019-03-04T19:33:16.794Z,58.98
2019-03-04T19:37:22.672Z,59.09
2019-03-04T19:41:28.515Z,59.80
2019-03-04T19:45:34.323Z,60.28
2019-03-04T19:49:40.097Z,60.37
2019-03-04T19:53:46.017Z,60.82
2019-03-04T19:57:51.724Z,61.08
2019-03-04T20:01:57.625Z,61.15
2019-03-04T20:06:05.874Z,61.59
2019-03-04T20:10:12.533Z,61.62
2019-03-04T20:14:18.847Z,61.94
2019-03-04T20:18:24.658Z,62.37
2019-03-04T20:22:30.777Z,62.21
2019-03-04T20:26:37.061Z,62.22
2019-03-04T20:30:47.389Z,62.42
2019-03-04T20:35:00.376Z,62.64
2019-03-04T20:39:10.506Z,62.89
2019-03-04T20:43:16.618Z,61.99
2019-03-04T20:47:22.447Z,62.42
2019-03-04T20:51:32.852Z,63.88
2019-03-04T20:55:38.422Z,67.56
2019-03-04T20:59:44.302Z,74.06
2019-03-04T21:03:50.217Z,76.32
2019-03-04T21:08:32.695Z,77.28
2019-03-04T21:12:38.612Z,78.18
2019-03-04T21:22:09.039Z,78.57
2019-03-04T21:26:39.141Z,77.89
2019-03-04T21:31:47.884Z,78.25
2019-03-04T21:36:49.033Z,78.60
2019-03-04T21:41:32.993Z,78.26
2019-03-04T21:46:31.107Z,78.02
2019-03-04T21:51:20.125Z,78.56
2019-03-04T21:55:38.586Z,79.47
2019-03-04T21:59:43.983Z,78.54
2019-03-04T22:03:50.182Z,78.60
2019-03-04T22:07:55.649Z,78.89
2019-03-04T22:12:01.207Z,78.93
2019-03-04T22:16:06.795Z,78.52
2019-03-04T22:20:12.525Z,78.17
2019-03-04T22:24:18.081Z,77.75
2019-03-04T22:28:23.876Z,77.60
2019-03-04T22:32:29.345Z,77.29
2019-03-04T22:37:11.150Z,77.18
2019-03-04T22:41:16.656Z,75.82
2019-03-04T22:45:22.119Z,75.65
2019-03-04T22:49:27.586Z,74.89
2019-03-04T22:53:32.946Z,74.06
2019-03-04T22:57:38.660Z,73.71
2019-03-04T23:02:00.806Z,73.91
2019-03-04T23:06:06.695Z,72.32
2019-03-04T23:10:29.174Z,71.72
2019-03-04T23:14:34.816Z,72.65
2019-03-04T23:18:40.238Z,71.60
2019-03-04T23:22:46.191Z,71.33
2019-03-04T23:26:51.606Z,71.08
2019-03-04T23:30:59.801Z,70.73
2019-03-04T23:35:04.399Z,70.93
2019-03-04T23:39:10.247Z,71.84
2019-03-04T23:43:15.950Z,71.13
2019-03-04T23:47:21.391Z,70.88
2019-03-04T23:51:26.843Z,70.74
2019-03-04T23:55:32.265Z,71.40
2019-03-04T23:59:37.733Z,71.19
